createdAt,value
2019-03-24T00:00:53.922Z,17.20
2019-03-24T00:03:26.735Z,16.07
2019-03-24T00:05:57.162Z,16.93
2019-03-24T00:08:26.444Z,16.23
2019-03-24T00:10:54.807Z,14.33
2019-03-24T00:13:27.148Z,15.85
2019-03-24T00:15:55.835Z,15.65
2019-03-24T00:18:24.072Z,14.87
2019-03-24T00:20:53.650Z,16.67
2019-03-24T00:23:25.094Z,15.85
2019-03-24T00:25:53.324Z,16.12
2019-03-24T00:28:24.982Z,14.70
2019-03-24T00:30:53.610Z,15.83
2019-03-24T00:33:26.439Z,15.30
2019-03-24T00:35:55.125Z,13.45
2019-03-24T00:38:23.412Z,13.25
2019-03-24T00:40:51.653Z,15.60
2019-03-24T00:43:20.325Z,13.43
2019-03-24T00:45:48.681Z,13.30
2019-03-24T00:48:17.515Z,14.15
2019-03-24T00:50:47.744Z,15.05
2019-03-24T00:53:17.753Z,14.33
2019-03-24T00:55:47.557Z,13.15
2019-03-24T00:58:16.119Z,13.55
2019-03-24T01:00:50.098Z,15.10
2019-03-24T01:03:21.297Z,13.40
2019-03-24T01:05:49.743Z,14.18
2019-03-24T01:08:19.217Z,13.62
2019-03-24T01:10:48.824Z,15.40
2019-03-24T01:13:17.245Z,14.20
2019-03-24T01:15:47.881Z,14.23
2019-03-24T01:18:16.431Z,14.75
2019-03-24T01:20:44.675Z,12.60
2019-03-24T01:23:12.956Z,14.50
2019-03-24T01:25:44.758Z,15.38
2019-03-24T01:28:13.131Z,14.10
2019-03-24T01:30:41.759Z,14.13
2019-03-24T01:33:11.215Z,13.45
2019-03-24T01:35:39.495Z,14.03
2019-03-24T01:38:08.353Z,14.35
2019-03-24T01:40:36.906Z,14.40
2019-03-24T01:43:05.305Z,14.18
2019-03-24T01:45:34.122Z,13.62
2019-03-24T01:48:02.701Z,13.05
2019-03-24T01:50:31.243Z,12.73
2019-03-24T01:52:59.487Z,14.05
2019-03-24T01:55:31.885Z,13.72
2019-03-24T01:58:02.118Z,12.63
2019-03-24T02:00:31.832Z,15.15
2019-03-24T02:03:02.123Z,12.55
2019-03-24T02:05:32.395Z,13.25
2019-03-24T02:08:00.700Z,14.07
2019-03-24T02:10:29.293Z,15.32
2019-03-24T02:12:57.604Z,14.15
2019-03-24T02:15:26.254Z,14.30
2019-03-24T02:17:54.575Z,14.30
2019-03-24T02:20:22.890Z,14.78
2019-03-24T02:22:52.167Z,14.68
2019-03-24T02:25:20.628Z,14.47
2019-03-24T02:27:49.283Z,14.33
2019-03-24T02:30:17.704Z,13.08
2019-03-24T02:32:47.484Z,15.43
2019-03-24T02:35:15.717Z,15.10
2019-03-24T02:37:44.085Z,15.08
2019-03-24T02:40:12.757Z,14.68
2019-03-24T02:42:41.143Z,13.40
2019-03-24T02:45:10.626Z,14.13
2019-03-24T02:47:39.225Z,17.65
2019-03-24T02:50:08.642Z,21.48
2019-03-24T02:52:37.034Z,20.62
2019-03-24T02:55:09.439Z,20.82
2019-03-24T02:57:38.144Z,22.50
2019-03-24T03:00:09.297Z,22.62
2019-03-24T03:02:37.941Z,22.52
2019-03-24T03:05:07.584Z,23.05
2019-03-24T03:07:36.174Z,23.00
2019-03-24T03:10:05.725Z,23.40
2019-03-24T03:12:34.904Z,22.20
2019-03-24T03:15:03.993Z,22.02
2019-03-24T03:17:34.098Z,21.45
2019-03-24T03:20:02.641Z,23.07
2019-03-24T03:22:31.193Z,23.45
2019-03-24T03:24:59.757Z,22.98
2019-03-24T03:27:28.405Z,21.60
2019-03-24T03:29:57.853Z,19.95
2019-03-24T03:32:26.145Z,20.95
2019-03-24T03:34:54.428Z,22.10
2019-03-24T03:37:22.776Z,21.95
2019-03-24T03:39:57.044Z,20.75
2019-03-24T03:42:22.179Z,19.98
2019-03-24T03:44:50.474Z,21.23
2019-03-24T03:47:19.232Z,19.60
2019-03-24T03:49:49.355Z,20.00
2019-03-24T03:52:18.949Z,19.62
2019-03-24T03:54:47.612Z,20.17
2019-03-24T03:57:15.961Z,19.42
2019-03-24T03:59:44.731Z,18.30
2019-03-24T04:02:13.706Z,20.32
2019-03-24T04:04:43.628Z,21.02
2019-03-24T04:07:12.657Z,20.72
2019-03-24T04:09:41.175Z,21.45
2019-03-24T04:12:09.431Z,23.47
2019-03-24T04:14:38.362Z,20.48
2019-03-24T04:17:08.119Z,23.60
2019-03-24T04:19:36.971Z,21.55
2019-03-24T04:22:06.484Z,21.45
2019-03-24T04:24:36.334Z,22.15
2019-03-24T04:27:04.697Z,20.27
2019-03-24T04:29:33.362Z,20.85
2019-03-24T04:32:02.034Z,20.55
2019-03-24T04:34:30.299Z,20.90
2019-03-24T04:36:58.952Z,23.57
2019-03-24T04:39:28.230Z,22.50
2019-03-24T04:41:56.823Z,20.23
2019-03-24T04:44:25.410Z,19.73
2019-03-24T04:46:53.734Z,20.85
2019-03-24T04:49:22.365Z,19.60
2019-03-24T04:51:50.706Z,19.57
2019-03-24T04:54:20.832Z,20.85
2019-03-24T04:56:49.298Z,20.12
2019-03-24T04:59:18.395Z,20.25
2019-03-24T05:01:47.139Z,21.25
2019-03-24T05:04:15.780Z,21.17
2019-03-24T05:06:44.897Z,19.48
2019-03-24T05:09:15.420Z,21.50
2019-03-24T05:11:43.879Z,21.57
2019-03-24T05:14:12.555Z,19.65
2019-03-24T05:16:40.832Z,19.52
2019-03-24T05:19:10.905Z,20.32
2019-03-24T05:21:40.058Z,20.85
2019-03-24T05:24:08.485Z,18.70
2019-03-24T05:26:39.730Z,19.20
2019-03-24T05:29:07.946Z,18.90
2019-03-24T05:31:37.471Z,19.15
2019-03-24T05:34:06.113Z,18.92
2019-03-24T05:36:34.861Z,17.00
2019-03-24T05:39:07.964Z,18.80
2019-03-24T05:41:36.285Z,17.35
2019-03-24T05:44:05.023Z,17.02
2019-03-24T05:46:33.730Z,17.60
2019-03-24T05:49:01.958Z,18.40
2019-03-24T05:51:31.390Z,18.90
2019-03-24T05:53:59.673Z,18.00
2019-03-24T05:56:27.963Z,20.27
2019-03-24T05:58:57.604Z,18.48
2019-03-24T06:01:26.114Z,18.67
2019-03-24T06:03:54.490Z,18.25
2019-03-24T06:06:23.136Z,18.65
2019-03-24T06:08:51.484Z,18.50
2019-03-24T06:11:24.261Z,18.77
2019-03-24T06:13:52.941Z,19.70
2019-03-24T06:16:22.194Z,20.23
2019-03-24T06:18:50.783Z,20.52
2019-03-24T06:21:19.358Z,27.30
2019-03-24T06:23:47.683Z,29.30
2019-03-24T06:26:16.323Z,27.37
2019-03-24T06:28:54.692Z,26.85
2019-03-24T06:31:23.549Z,26.50
2019-03-24T06:33:55.266Z,24.15
2019-03-24T06:36:24.982Z,23.42
2019-03-24T06:38:56.565Z,23.75
2019-03-24T06:41:25.821Z,21.25
2019-03-24T06:43:59.929Z,22.48
2019-03-24T06:46:28.273Z,21.37
2019-03-24T06:48:57.862Z,20.02
2019-03-24T06:51:29.456Z,21.17
2019-03-24T06:53:58.918Z,22.10
2019-03-24T06:56:27.663Z,22.05
2019-03-24T06:58:57.467Z,22.20
2019-03-24T07:01:25.909Z,19.57
2019-03-24T07:03:56.526Z,20.82
2019-03-24T07:06:25.164Z,21.82
2019-03-24T07:08:59.113Z,24.50
2019-03-24T07:11:28.491Z,22.70
2019-03-24T07:13:58.725Z,21.50
2019-03-24T07:16:28.142Z,21.37
2019-03-24T07:18:57.563Z,24.10
2019-03-24T07:21:26.344Z,23.83
2019-03-24T07:23:54.990Z,26.07
2019-03-24T07:26:23.262Z,24.73
2019-03-24T07:28:51.497Z,22.03
2019-03-24T07:31:19.831Z,22.47
2019-03-24T07:33:48.481Z,20.70
2019-03-24T07:36:17.419Z,21.30
2019-03-24T07:38:46.779Z,21.03
2019-03-24T07:41:15.045Z,21.10
2019-03-24T07:43:44.508Z,22.03
2019-03-24T07:46:13.164Z,20.50
2019-03-24T07:48:41.461Z,21.30
2019-03-24T07:51:09.727Z,22.53
2019-03-24T07:53:38.951Z,23.10
2019-03-24T07:56:08.359Z,21.47
2019-03-24T07:58:36.962Z,21.30
2019-03-24T08:01:05.277Z,21.60
2019-03-24T08:03:33.914Z,20.23
2019-03-24T08:06:02.239Z,19.67
2019-03-24T08:08:31.747Z,21.73
2019-03-24T08:11:00.050Z,20.97
2019-03-24T08:13:30.344Z,20.77
2019-03-24T08:15:59.043Z,20.80
2019-03-24T08:18:30.122Z,20.23
2019-03-24T08:20:58.235Z,20.23
2019-03-24T08:23:29.528Z,21.60
2019-03-24T08:25:59.062Z,20.43
2019-03-24T08:28:30.726Z,22.00
2019-03-24T08:30:59.357Z,20.73
2019-03-24T08:33:27.974Z,20.00
2019-03-24T08:35:56.814Z,20.00
2019-03-24T08:38:27.048Z,20.63
2019-03-24T08:40:55.819Z,19.60
2019-03-24T08:43:24.053Z,20.00
2019-03-24T08:45:52.639Z,20.87
2019-03-24T08:48:25.054Z,20.47
2019-03-24T08:50:54.452Z,20.33
2019-03-24T08:53:22.824Z,19.97
2019-03-24T08:55:51.458Z,19.43
2019-03-24T08:58:23.168Z,20.57
2019-03-24T09:00:52.221Z,20.10
2019-03-24T09:03:21.212Z,19.40
2019-03-24T09:05:50.769Z,20.93
2019-03-24T09:08:24.086Z,20.03
2019-03-24T09:10:52.781Z,20.53
2019-03-24T09:13:25.454Z,20.23
2019-03-24T09:15:54.054Z,19.60
2019-03-24T09:18:22.595Z,20.73
2019-03-24T09:20:51.034Z,20.77
2019-03-24T09:23:20.669Z,21.03
2019-03-24T09:25:49.203Z,19.77
2019-03-24T09:28:21.361Z,18.97
2019-03-24T09:30:49.950Z,19.60
2019-03-24T09:33:18.616Z,18.63
2019-03-24T09:35:46.913Z,18.60
2019-03-24T09:38:15.139Z,15.93
2019-03-24T09:40:43.436Z,16.67
2019-03-24T09:43:12.077Z,18.50
2019-03-24T09:45:40.787Z,17.10
2019-03-24T09:48:09.449Z,15.77
2019-03-24T09:50:37.758Z,16.73
2019-03-24T09:53:06.658Z,17.20
2019-03-24T09:55:35.087Z,16.63
2019-03-24T09:58:03.472Z,20.53
2019-03-24T10:00:32.125Z,16.83
2019-03-24T10:03:00.804Z,17.77
2019-03-24T10:05:29.077Z,18.00
2019-03-24T10:07:57.747Z,16.43
2019-03-24T10:10:30.281Z,17.10
2019-03-24T10:12:58.760Z,15.43
2019-03-24T10:15:29.911Z,14.70
2019-03-24T10:17:58.621Z,14.57
2019-03-24T10:20:28.175Z,15.90
2019-03-24T10:22:57.064Z,14.47
2019-03-24T10:25:25.658Z,13.87
2019-03-24T10:27:54.256Z,15.17
2019-03-24T10:30:22.869Z,13.87
2019-03-24T10:32:51.194Z,14.07
2019-03-24T10:35:19.424Z,14.60
2019-03-24T10:37:47.694Z,15.60
2019-03-24T10:40:16.495Z,14.83
2019-03-24T10:42:45.147Z,14.93
2019-03-24T10:45:13.583Z,14.90
2019-03-24T10:47:42.024Z,14.80
2019-03-24T10:50:14.335Z,16.17
2019-03-24T10:52:42.239Z,16.53
2019-03-24T10:55:12.462Z,13.87
2019-03-24T10:57:40.983Z,15.93
2019-03-24T11:00:12.264Z,15.47
2019-03-24T11:02:40.742Z,14.33
2019-03-24T11:05:09.698Z,14.40
2019-03-24T11:07:40.543Z,13.87
2019-03-24T11:10:09.434Z,12.30
2019-03-24T11:12:37.762Z,11.60
2019-03-24T11:15:08.861Z,13.00
2019-03-24T11:17:37.723Z,12.43
2019-03-24T11:20:08.326Z,13.33
2019-03-24T11:22:38.571Z,13.33
2019-03-24T11:25:08.874Z,11.93
2019-03-24T11:27:39.546Z,12.20
2019-03-24T11:30:10.512Z,12.53
2019-03-24T11:32:39.159Z,14.17
2019-03-24T11:35:08.560Z,12.70
2019-03-24T11:37:37.649Z,13.00
2019-03-24T11:40:06.743Z,13.10
2019-03-24T11:42:35.564Z,12.90
2019-03-24T11:45:04.542Z,13.73
2019-03-24T11:47:34.311Z,11.63
2019-03-24T11:50:03.197Z,12.97
2019-03-24T11:52:31.668Z,11.63
2019-03-24T11:55:00.912Z,13.03
2019-03-24T11:57:29.229Z,13.07
2019-03-24T11:59:57.671Z,11.97
2019-03-24T12:02:26.104Z,13.10
2019-03-24T12:04:54.738Z,12.50
2019-03-24T12:07:24.149Z,13.23
2019-03-24T12:09:52.525Z,12.90
2019-03-24T12:12:21.408Z,12.87
2019-03-24T12:14:50.247Z,12.83
2019-03-24T12:17:19.580Z,12.43
2019-03-24T12:19:56.409Z,11.70
2019-03-24T12:22:18.319Z,11.70
2019-03-24T12:24:49.836Z,12.17
2019-03-24T12:27:18.173Z,13.13
2019-03-24T12:29:46.804Z,12.00
2019-03-24T12:32:15.922Z,11.60
2019-03-24T12:34:44.263Z,11.57
2019-03-24T12:37:12.909Z,12.47
2019-03-24T12:39:41.600Z,13.10
2019-03-24T12:42:11.408Z,12.87
2019-03-24T12:44:39.942Z,12.00
2019-03-24T12:47:08.211Z,12.60
2019-03-24T12:49:36.750Z,11.90
2019-03-24T12:52:05.532Z,12.43
2019-03-24T12:54:34.151Z,11.83
2019-03-24T12:57:02.408Z,12.40
2019-03-24T12:59:31.859Z,11.83
2019-03-24T13:02:01.425Z,19.97
2019-03-24T13:04:30.421Z,84.77
2019-03-24T13:06:59.327Z,46.73
2019-03-24T13:09:27.655Z,15.73
2019-03-24T13:11:55.885Z,14.40
2019-03-24T13:14:27.800Z,11.93
2019-03-24T13:16:56.289Z,12.70
2019-03-24T13:19:28.359Z,12.80
2019-03-24T13:21:56.954Z,12.10
2019-03-24T13:24:30.496Z,12.70
2019-03-24T13:26:58.856Z,11.80
2019-03-24T13:29:27.731Z,37.63
2019-03-24T13:35:21.829Z,23.23
2019-03-24T13:38:04.038Z,11.80
2019-03-24T13:40:35.592Z,11.57
2019-03-24T13:43:31.375Z,15.00
2019-03-24T13:46:01.286Z,12.00
2019-03-24T13:48:29.594Z,12.73
2019-03-24T13:50:58.732Z,13.00
2019-03-24T13:53:45.416Z,11.43
2019-03-24T13:56:21.615Z,12.67
2019-03-24T13:58:56.538Z,11.27
2019-03-24T14:01:25.042Z,16.47
2019-03-24T14:03:53.575Z,13.00
2019-03-24T14:06:21.887Z,11.50
2019-03-24T14:08:50.522Z,12.40
2019-03-24T14:11:24.240Z,13.53
2019-03-24T14:13:52.856Z,12.33
2019-03-24T14:16:22.524Z,14.37
2019-03-24T14:18:51.061Z,22.37
2019-03-24T14:21:21.389Z,14.33
2019-03-24T14:23:49.625Z,14.40
2019-03-24T14:26:17.903Z,14.33
2019-03-24T14:28:46.193Z,13.77
2019-03-24T14:31:15.655Z,15.83
2019-03-24T14:33:43.959Z,13.03
2019-03-24T14:36:13.527Z,11.83
2019-03-24T14:38:41.745Z,12.23
2019-03-24T14:41:10.080Z,12.00
2019-03-24T14:43:38.841Z,11.37
2019-03-24T14:46:08.311Z,12.30
2019-03-24T14:48:37.459Z,11.63
2019-03-24T14:51:05.735Z,11.80
2019-03-24T14:53:33.999Z,13.37
2019-03-24T14:56:03.075Z,16.10
2019-03-24T14:58:31.689Z,13.93
2019-03-24T15:01:00.352Z,12.63
2019-03-24T15:03:29.059Z,12.00
2019-03-24T15:05:57.399Z,12.40
2019-03-24T15:08:25.940Z,11.83
2019-03-24T15:10:54.363Z,11.33
2019-03-24T15:13:22.873Z,11.08
2019-03-24T15:15:54.043Z,13.32
2019-03-24T15:18:22.738Z,18.80
2019-03-24T15:20:52.175Z,40.10
2019-03-24T15:23:21.737Z,74.87
2019-03-24T15:25:50.063Z,22.05
2019-03-24T15:28:21.797Z,12.63
2019-03-24T15:30:53.908Z,17.52
2019-03-24T15:33:22.364Z,34.38
2019-03-24T15:35:53.034Z,14.87
2019-03-24T15:38:22.496Z,11.60
2019-03-24T15:40:52.883Z,11.50
2019-03-24T15:43:21.907Z,12.70
2019-03-24T15:45:50.212Z,10.88
2019-03-24T15:48:18.836Z,10.75
2019-03-24T15:50:59.533Z,11.22
2019-03-24T15:53:28.813Z,11.33
2019-03-24T15:55:57.566Z,11.57
2019-03-24T15:58:26.431Z,11.20
2019-03-24T16:01:01.396Z,12.07
2019-03-24T16:03:31.189Z,13.53
2019-03-24T16:06:06.203Z,12.93
2019-03-24T16:08:34.452Z,12.60
2019-03-24T16:11:02.851Z,12.53
2019-03-24T16:13:31.907Z,14.30
2019-03-24T16:16:00.522Z,10.68
2019-03-24T16:18:28.886Z,10.70
2019-03-24T16:21:01.430Z,10.28
2019-03-24T16:23:32.033Z,13.13
2019-03-24T16:26:00.473Z,16.02
2019-03-24T16:28:34.005Z,10.48
2019-03-24T16:31:02.648Z,11.75
2019-03-24T16:33:31.470Z,11.35
2019-03-24T16:36:36.917Z,9.63
2019-03-24T16:39:07.836Z,9.45
2019-03-24T16:41:36.215Z,10.20
2019-03-24T16:44:04.553Z,10.93
2019-03-24T16:46:33.391Z,10.25
2019-03-24T16:49:08.812Z,11.12
2019-03-24T16:51:40.644Z,10.75
2019-03-24T16:54:22.351Z,12.55
2019-03-24T16:56:57.687Z,10.05
2019-03-24T16:59:36.097Z,11.73
2019-03-24T17:02:04.742Z,12.78
2019-03-24T17:04:33.346Z,11.95
2019-03-24T17:07:01.663Z,14.15
2019-03-24T17:09:30.270Z,15.48
2019-03-24T17:11:58.912Z,15.40
2019-03-24T17:14:28.059Z,14.35
2019-03-24T17:16:56.733Z,13.60
2019-03-24T17:19:26.646Z,14.50
2019-03-24T17:21:59.814Z,15.55
2019-03-24T17:24:28.557Z,15.65
2019-03-24T17:26:56.791Z,15.30
2019-03-24T17:29:25.936Z,15.43
2019-03-24T17:31:54.224Z,13.93
2019-03-24T17:34:23.648Z,14.85
2019-03-24T17:36:51.986Z,13.48
2019-03-24T17:39:21.451Z,13.88
2019-03-24T17:41:53.230Z,13.20
2019-03-24T17:44:22.509Z,14.18
2019-03-24T17:46:50.810Z,13.78
2019-03-24T17:49:19.837Z,12.47
2019-03-24T17:51:48.206Z,12.47
2019-03-24T17:54:16.820Z,14.43
2019-03-24T17:56:46.824Z,12.53
2019-03-24T17:59:16.729Z,13.75
2019-03-24T18:01:47.011Z,13.55
2019-03-24T18:04:15.282Z,12.82
2019-03-24T18:06:43.951Z,12.28
2019-03-24T18:09:13.876Z,12.53
2019-03-24T18:11:42.571Z,11.70
2019-03-24T18:14:10.858Z,11.80
2019-03-24T18:16:40.305Z,11.63
2019-03-24T18:19:14.956Z,11.57
2019-03-24T18:21:45.550Z,12.73
2019-03-24T18:24:16.184Z,12.05
2019-03-24T18:26:44.665Z,13.30
2019-03-24T18:29:13.153Z,13.30
2019-03-24T18:31:41.476Z,13.05
2019-03-24T18:34:10.093Z,15.45
2019-03-24T18:36:38.460Z,15.32
2019-03-24T18:39:08.859Z,14.30
2019-03-24T18:41:37.204Z,14.73
2019-03-24T18:44:21.164Z,13.88
2019-03-24T18:46:51.148Z,14.13
2019-03-24T18:49:19.485Z,12.90
2019-03-24T18:51:47.810Z,13.28
2019-03-24T18:54:18.856Z,13.32
2019-03-24T18:56:47.132Z,14.07
2019-03-24T18:59:15.414Z,13.32
2019-03-24T19:01:43.741Z,13.08
2019-03-24T19:04:12.366Z,14.45
2019-03-24T19:06:44.390Z,13.60
2019-03-24T19:09:14.187Z,14.50
2019-03-24T19:11:44.769Z,13.62
2019-03-24T19:14:13.510Z,14.13
2019-03-24T19:16:46.946Z,13.45
2019-03-24T19:19:27.435Z,14.63
2019-03-24T19:21:55.800Z,15.15
2019-03-24T19:24:42.201Z,15.35
2019-03-24T19:27:11.546Z,16.02
2019-03-24T19:29:45.685Z,16.05
2019-03-24T19:32:15.073Z,16.32
2019-03-24T19:34:43.746Z,15.08
2019-03-24T19:37:14.252Z,16.25
2019-03-24T19:39:42.712Z,18.98
2019-03-24T19:42:11.346Z,19.77
2019-03-24T19:44:43.842Z,23.35
2019-03-24T19:47:12.534Z,22.15
2019-03-24T19:49:41.650Z,23.85
2019-03-24T19:52:10.834Z,24.65
2019-03-24T19:54:39.601Z,28.83
2019-03-24T19:57:08.155Z,31.85
2019-03-24T19:59:37.148Z,34.90
2019-03-24T20:02:05.976Z,30.32
2019-03-24T20:04:34.534Z,32.17
2019-03-24T20:07:03.272Z,28.90
2019-03-24T20:09:31.574Z,26.95
2019-03-24T20:12:00.390Z,27.37
2019-03-24T20:14:29.812Z,24.37
2019-03-24T20:16:58.067Z,24.15
2019-03-24T20:19:26.703Z,24.87
2019-03-24T20:21:55.358Z,24.32
2019-03-24T20:24:24.003Z,24.60
2019-03-24T20:26:53.393Z,24.50
2019-03-24T20:29:21.928Z,28.10
2019-03-24T20:31:50.429Z,26.07
2019-03-24T20:34:22.904Z,26.52
2019-03-24T20:36:51.473Z,24.85
2019-03-24T20:39:19.818Z,26.75
2019-03-24T20:41:48.132Z,27.52
2019-03-24T20:44:16.759Z,28.05
2019-03-24T20:46:48.835Z,28.05
2019-03-24T20:49:17.426Z,28.55
2019-03-24T20:51:45.764Z,29.30
2019-03-24T20:54:14.383Z,29.48
2019-03-24T20:56:44.770Z,28.30
2019-03-24T20:59:13.385Z,29.65
2019-03-24T21:01:41.777Z,34.60
2019-03-24T21:04:10.355Z,31.00
2019-03-24T21:06:39.043Z,31.60
2019-03-24T21:09:08.352Z,32.65
2019-03-24T21:11:36.718Z,32.60
2019-03-24T21:14:05.254Z,32.30
2019-03-24T21:16:33.781Z,31.57
2019-03-24T21:19:02.430Z,31.10
2019-03-24T21:21:30.794Z,34.08
2019-03-24T21:23:59.066Z,31.12
2019-03-24T21:26:30.761Z,32.28
2019-03-24T21:29:00.129Z,32.83
2019-03-24T21:31:28.718Z,31.90
2019-03-24T21:33:57.120Z,33.83
2019-03-24T21:36:25.675Z,35.55
2019-03-24T21:39:07.278Z,34.10
2019-03-24T21:41:35.646Z,35.78
2019-03-24T21:44:06.795Z,35.05
2019-03-24T21:46:35.240Z,36.30
2019-03-24T21:49:03.959Z,35.58
2019-03-24T21:51:32.609Z,35.65
2019-03-24T21:54:01.261Z,35.17
2019-03-24T21:56:29.617Z,33.05
2019-03-24T21:58:59.043Z,32.15
2019-03-24T22:01:27.771Z,31.30
2019-03-24T22:03:57.211Z,35.45
2019-03-24T22:06:25.921Z,36.85
2019-03-24T22:08:54.674Z,36.95
2019-03-24T22:11:23.294Z,35.78
2019-03-24T22:13:52.818Z,36.05
2019-03-24T22:16:28.474Z,33.08
2019-03-24T22:19:09.137Z,29.80
2019-03-24T22:21:38.214Z,30.68
2019-03-24T22:24:07.584Z,30.65
2019-03-24T22:26:35.942Z,29.25
2019-03-24T22:29:07.411Z,29.12
2019-03-24T22:31:35.782Z,27.77
2019-03-24T22:34:04.924Z,27.70
2019-03-24T22:36:34.712Z,30.10
2019-03-24T22:39:04.933Z,29.80
2019-03-24T22:41:33.321Z,29.48
2019-03-24T22:44:01.992Z,27.87
2019-03-24T22:46:31.415Z,29.12
2019-03-24T22:48:59.741Z,27.50
2019-03-24T22:51:28.060Z,27.98
2019-03-24T22:54:03.210Z,28.02
2019-03-24T22:56:27.247Z,26.12
2019-03-24T22:58:55.761Z,25.85
2019-03-24T23:01:24.467Z,26.02
2019-03-24T23:03:53.374Z,25.05
2019-03-24T23:06:23.139Z,25.52
2019-03-24T23:08:51.813Z,24.50
2019-03-24T23:11:21.277Z,25.77
2019-03-24T23:13:49.946Z,24.95
2019-03-24T23:16:19.506Z,26.05
2019-03-24T23:18:49.394Z,26.62
2019-03-24T23:21:18.056Z,25.27
2019-03-24T23:23:46.275Z,26.12
2019-03-24T23:26:17.539Z,24.90
2019-03-24T23:28:46.119Z,26.37
2019-03-24T23:31:16.943Z,26.42
2019-03-24T23:33:45.695Z,25.88
2019-03-24T23:36:16.322Z,24.65
2019-03-24T23:38:44.578Z,27.02
2019-03-24T23:41:12.819Z,25.62
2019-03-24T23:43:41.588Z,26.68
2019-03-24T23:46:10.233Z,26.05
2019-03-24T23:48:38.520Z,26.07
2019-03-24T23:51:09.198Z,25.25
2019-03-24T23:53:37.447Z,23.40
2019-03-24T23:56:06.936Z,24.02
2019-03-24T23:58:41.110Z,26.30
